METAR Data
IDs: Format: Raw Decoded Include TAF

Data at: 1441 UTC 22 Apr 2021

LKPR 221430Z 32013KT 9999 FEW048 09/M04 Q1019 NOSIG